Time;durP1;ratioP1;P1;durP2;ratioP2;P2;SDS_P1;SDS_P2;PMS_P1;PMS_P2;Temp;Humidity;BMP_temperature;BMP_pressure;BME280_temperature;BME280_humidity;BME280_pressure;Samples;Min_cycle;Max_cycle;Signal;HPM_P1;HPM_P2
2021/11/27 00:01:58;;;;;;;3.50;3.00;;;17.80;52.80;;;;;;5024352;28;20083;-59
2021/11/27 00:04:24;;;;;;;3.00;2.70;;;17.80;52.80;;;;;;5025251;28;20026;-57
2021/11/27 00:06:49;;;;;;;3.47;2.90;;;17.80;52.70;;;;;;5024687;28;20562;-57
2021/11/27 00:09:15;;;;;;;2.83;2.45;;;17.80;52.60;;;;;;5024610;28;20129;-58
2021/11/27 00:11:40;;;;;;;3.53;2.53;;;17.80;52.60;;;;;;5006641;28;20231;-56
2021/11/27 00:14:07;;;;;;;4.43;2.70;;;17.80;52.60;;;;;;5024703;28;20087;-56
2021/11/27 00:16:34;;;;;;;2.38;2.17;;;17.80;52.60;;;;;;5023664;28;20049;-57
2021/11/27 00:18:59;;;;;;;3.17;2.38;;;17.80;52.60;;;;;;5023651;28;20418;-57
2021/11/27 00:21:25;;;;;;;3.75;2.65;;;17.80;52.40;;;;;;5024051;28;20025;-57
2021/11/27 00:23:50;;;;;;;2.88;2.47;;;17.80;52.40;;;;;;5024428;28;20037;-56
2021/11/27 00:26:16;;;;;;;3.53;2.40;;;17.90;52.40;;;;;;5024303;28;20030;-58
2021/11/27 00:28:42;;;;;;;2.40;2.20;;;17.80;52.40;;;;;;5023991;28;20026;-60
2021/11/27 00:31:13;;;;;;;3.90;2.45;;;17.80;52.30;;;;;;5022612;28;20030;-57
2021/11/27 00:33:38;;;;;;;3.42;2.65;;;17.80;52.40;;;;;;5024425;28;20431;-57
2021/11/27 00:36:04;;;;;;;3.25;2.28;;;17.80;52.40;;;;;;5021926;28;20041;-57
2021/11/27 00:38:30;;;;;;;3.00;2.60;;;17.80;52.30;;;;;;5024295;28;20037;-58
2021/11/27 00:40:56;;;;;;;3.05;2.65;;;17.80;52.30;;;;;;5023899;28;20447;-57
2021/11/27 00:43:21;;;;;;;3.15;2.47;;;17.90;52.40;;;;;;5023605;28;20034;-59
2021/11/27 00:45:48;;;;;;;2.50;2.03;;;17.90;52.30;;;;;;5023914;28;20407;-58
2021/11/27 00:48:14;;;;;;;2.55;2.20;;;17.80;52.20;;;;;;4990082;28;20045;-59
2021/11/27 00:50:43;;;;;;;2.30;2.08;;;17.80;52.20;;;;;;5004176;28;20026;-57
2021/11/27 00:53:08;;;;;;;2.53;2.33;;;17.80;52.20;;;;;;5022013;28;20069;-57
2021/11/27 00:55:34;;;;;;;2.58;2.38;;;17.90;52.20;;;;;;5005909;28;20485;-58
2021/11/27 00:57:59;;;;;;;2.35;2.13;;;17.90;52.20;;;;;;5005214;28;20029;-56
2021/11/27 01:00:31;;;;;;;2.40;2.00;;;17.90;52.20;;;;;;5021737;28;20045;-57
2021/11/27 01:02:57;;;;;;;2.97;2.22;;;17.90;52.20;;;;;;4996318;28;20034;-56
2021/11/27 01:05:23;;;;;;;2.80;2.03;;;17.80;52.20;;;;;;5023407;28;20037;-58
2021/11/27 01:07:48;;;;;;;2.47;2.28;;;17.80;52.20;;;;;;5021316;28;20511;-58
2021/11/27 01:10:19;;;;;;;2.47;2.08;;;17.80;52.20;;;;;;5005856;28;20029;-56
2021/11/27 01:12:44;;;;;;;3.40;2.00;;;17.80;52.30;;;;;;5005714;28;20499;-57
2021/11/27 01:15:11;;;;;;;3.10;2.15;;;17.70;52.30;;;;;;5023837;28;20045;-57
2021/11/27 01:17:37;;;;;;;2.42;2.22;;;17.70;52.40;;;;;;5022813;28;20040;-55
2021/11/27 01:20:04;;;;;;;2.80;2.53;;;17.70;52.40;;;;;;5004932;28;20403;-59
2021/11/27 01:22:29;;;;;;;2.30;2.10;;;17.60;52.50;;;;;;5023206;28;20033;-58
2021/11/27 01:24:55;;;;;;;3.65;2.40;;;17.60;52.60;;;;;;5023739;28;20037;-55
2021/11/27 01:27:20;;;;;;;2.20;2.00;;;17.50;52.60;;;;;;5023177;28;20696;-56
2021/11/27 01:29:46;;;;;;;2.15;1.90;;;17.50;52.70;;;;;;5022983;28;20025;-56
2021/11/27 01:32:13;;;;;;;2.25;1.77;;;17.50;52.80;;;;;;5022868;28;20072;-59
2021/11/27 01:34:40;;;;;;;1.90;1.75;;;17.50;52.90;;;;;;4996352;28;20053;-57
2021/11/27 01:37:06;;;;;;;2.47;2.10;;;17.40;52.90;;;;;;5023222;28;20046;-57
2021/11/27 01:39:31;;;;;;;2.33;1.92;;;17.40;53.00;;;;;;5004440;28;20033;-57
2021/11/27 01:41:57;;;;;;;2.30;2.10;;;17.40;53.00;;;;;;5023401;28;20406;-55
2021/11/27 01:44:22;;;;;;;2.92;2.33;;;17.40;53.10;;;;;;5022104;28;20052;-57
2021/11/27 01:46:48;;;;;;;2.10;1.75;;;17.40;53.20;;;;;;5022792;28;20046;-56
2021/11/27 01:49:13;;;;;;;2.72;1.67;;;17.40;53.30;;;;;;5022388;28;20175;-55
2021/11/27 01:51:39;;;;;;;1.95;1.75;;;17.40;53.30;;;;;;5021960;28;20029;-57
2021/11/27 01:54:07;;;;;;;2.47;2.28;;;17.40;53.40;;;;;;5022062;28;20033;-55
2021/11/27 01:56:39;;;;;;;1.88;1.63;;;17.40;53.40;;;;;;5005309;28;20022;-56
2021/11/27 01:59:04;;;;;;;2.20;2.00;;;17.40;53.40;;;;;;5021728;28;20037;-57
2021/11/27 02:01:30;;;;;;;1.95;1.73;;;17.40;53.40;;;;;;5005258;28;20033;-57
2021/11/27 02:03:57;;;;;;;2.13;1.92;;;17.40;53.50;;;;;;5021959;28;20042;-56
2021/11/27 02:06:23;;;;;;;2.00;1.70;;;17.40;53.40;;;;;;5022115;28;20038;-56
2021/11/27 02:08:49;;;;;;;2.85;1.60;;;17.40;54.10;;;;;;5021155;28;20030;-59
2021/11/27 02:11:16;;;;;;;2.83;1.80;;;17.40;53.40;;;;;;5004810;28;20040;-57
2021/11/27 02:13:41;;;;;;;2.30;1.70;;;17.50;53.30;;;;;;5022162;28;20234;-59
2021/11/27 02:16:07;;;;;;;2.92;1.95;;;17.50;53.90;;;;;;5021528;28;20541;-57
2021/11/27 02:18:32;;;;;;;1.88;1.75;;;17.50;53.30;;;;;;5003280;23;20085;-59
2021/11/27 02:21:04;;;;;;;2.28;1.75;;;17.60;53.70;;;;;;4980658;28;20139;-59
2021/11/27 02:23:30;;;;;;;3.28;2.25;;;17.60;53.10;;;;;;4986897;28;20033;-59
2021/11/27 02:25:56;;;;;;;2.20;2.00;;;17.70;52.90;;;;;;5001739;28;20429;-60
2021/11/27 02:28:21;;;;;;;1.70;1.60;;;17.70;52.80;;;;;;4986856;28;21092;-60
2021/11/27 02:30:47;;;;;;;1.85;1.60;;;17.70;52.70;;;;;;4986237;28;20455;-59
2021/11/27 02:33:13;;;;;;;1.98;1.65;;;17.70;52.60;;;;;;4986408;28;20030;-59
2021/11/27 02:35:39;;;;;;;1.98;1.77;;;17.80;52.40;;;;;;4986626;28;20019;-60
2021/11/27 02:38:04;;;;;;;2.92;2.08;;;17.90;52.20;;;;;;4986554;28;20081;-60
2021/11/27 02:40:30;;;;;;;3.30;1.80;;;17.90;52.10;;;;;;4986272;28;20026;-60
2021/11/27 02:42:56;;;;;;;2.13;1.90;;;18.00;51.90;;;;;;4955226;28;20116;-59
2021/11/27 02:45:21;;;;;;;3.38;1.98;;;18.00;51.90;;;;;;4986306;28;20378;-60
2021/11/27 02:47:47;;;;;;;1.73;1.42;;;18.00;51.90;;;;;;4986401;28;20030;-60
2021/11/27 02:50:13;;;;;;;2.40;1.63;;;18.00;51.80;;;;;;4986261;28;20026;-59
2021/11/27 02:52:39;;;;;;;2.22;1.88;;;18.00;51.80;;;;;;4986178;28;20033;-59
2021/11/27 02:55:05;;;;;;;1.88;1.77;;;18.00;51.70;;;;;;4986614;28;20030;-58
2021/11/27 02:57:31;;;;;;;2.70;1.60;;;18.00;51.70;;;;;;4986035;28;20445;-59
2021/11/27 02:59:58;;;;;;;2.42;1.80;;;18.00;51.80;;;;;;4986086;28;20481;-59
2021/11/27 03:02:24;;;;;;;1.80;1.70;;;18.00;51.80;;;;;;4986231;28;20485;-60
2021/11/27 03:04:49;;;;;;;1.92;1.65;;;18.00;51.80;;;;;;4987537;28;20106;-59
2021/11/27 03:07:15;;;;;;;2.13;1.50;;;18.00;51.80;;;;;;4986223;28;20198;-60
2021/11/27 03:09:41;;;;;;;2.00;1.73;;;17.90;51.80;;;;;;4986960;28;20027;-60
2021/11/27 03:12:06;;;;;;;1.60;1.50;;;17.90;51.80;;;;;;4985667;28;20030;-60
2021/11/27 03:14:33;;;;;;;1.70;1.60;;;17.90;51.80;;;;;;4989540;28;20046;-60
2021/11/27 03:16:59;;;;;;;2.05;1.70;;;17.90;51.80;;;;;;4989691;28;20053;-59
2021/11/27 03:19:25;;;;;;;2.03;1.83;;;17.90;51.90;;;;;;4972683;28;20077;-61
2021/11/27 03:21:50;;;;;;;2.95;1.60;;;17.90;51.90;;;;;;4990218;28;20034;-59
2021/11/27 03:24:16;;;;;;;3.65;1.98;;;17.90;51.90;;;;;;4985700;28;20045;-60
2021/11/27 03:26:42;;;;;;;1.67;1.52;;;17.90;51.90;;;;;;4988781;28;20042;-60
2021/11/27 03:29:08;;;;;;;2.10;1.90;;;17.80;51.90;;;;;;4990160;28;20366;-60
2021/11/27 03:31:33;;;;;;;1.98;1.77;;;17.80;52.00;;;;;;4972579;28;20051;-60
2021/11/27 03:33:59;;;;;;;3.08;1.70;;;17.80;52.00;;;;;;4990119;28;20027;-60
2021/11/27 03:36:24;;;;;;;1.88;1.67;;;17.80;52.10;;;;;;4972710;28;20109;-59
2021/11/27 03:38:50;;;;;;;2.50;1.92;;;17.70;52.10;;;;;;4989501;28;20049;-60
2021/11/27 03:41:15;;;;;;;1.52;1.42;;;17.70;52.20;;;;;;4990058;28;20744;-59
2021/11/27 03:43:41;;;;;;;2.03;1.50;;;17.60;52.40;;;;;;4989317;28;20092;-60
2021/11/27 03:46:07;;;;;;;2.00;1.45;;;17.60;52.50;;;;;;4989689;28;20110;-61
2021/11/27 03:48:34;;;;;;;1.60;1.50;;;17.60;52.60;;;;;;4989764;28;20646;-60
2021/11/27 03:51:01;;;;;;;1.52;1.40;;;17.50;52.70;;;;;;4988536;28;20635;-59
2021/11/27 03:53:29;;;;;;;3.08;1.88;;;17.60;52.80;;;;;;4985617;28;20069;-60
2021/11/27 03:55:54;;;;;;;1.45;1.27;;;17.50;52.80;;;;;;4988663;28;20030;-60
2021/11/27 03:58:20;;;;;;;1.85;1.60;;;17.50;52.80;;;;;;4972094;28;20030;-59
2021/11/27 04:00:45;;;;;;;1.42;1.20;;;17.50;52.80;;;;;;4989222;28;20038;-60
2021/11/27 04:03:12;;;;;;;1.45;1.35;;;17.50;52.80;;;;;;4989153;28;20022;-60
2021/11/27 04:05:43;;;;;;;2.60;1.88;;;17.50;52.90;;;;;;4989588;28;20055;-60
2021/11/27 04:08:09;;;;;;;1.77;1.58;;;17.50;53.30;;;;;;4988313;28;20037;-60
2021/11/27 04:10:34;;;;;;;1.65;1.40;;;17.50;53.00;;;;;;4989060;28;20014;-60
2021/11/27 04:13:00;;;;;;;2.13;1.70;;;17.50;53.00;;;;;;4986853;28;20026;-60
2021/11/27 04:15:26;;;;;;;3.53;1.48;;;17.40;53.00;;;;;;4988849;28;20057;-60
2021/11/27 04:17:52;;;;;;;2.50;1.90;;;17.40;53.10;;;;;;4988910;28;20114;-60
2021/11/27 04:20:17;;;;;;;1.58;1.40;;;17.40;53.10;;;;;;4988258;28;20030;-60
2021/11/27 04:22:43;;;;;;;2.30;1.40;;;17.40;53.10;;;;;;4971101;28;20511;-60
2021/11/27 04:25:08;;;;;;;2.45;1.50;;;17.40;53.10;;;;;;4987142;28;20503;-60
2021/11/27 04:27:34;;;;;;;1.55;1.45;;;17.40;53.10;;;;;;4988419;28;20046;-60
2021/11/27 04:29:59;;;;;;;1.98;1.50;;;17.40;53.20;;;;;;4988648;28;20041;-59
2021/11/27 04:32:25;;;;;;;2.25;1.85;;;17.40;53.20;;;;;;4989365;28;20030;-59
2021/11/27 04:34:50;;;;;;;1.90;1.27;;;17.40;53.20;;;;;;4988597;28;20109;-59
2021/11/27 04:37:16;;;;;;;2.17;1.67;;;17.40;53.10;;;;;;4988730;28;20045;-60
2021/11/27 04:39:41;;;;;;;2.88;1.58;;;17.40;53.10;;;;;;4988360;28;20010;-60
2021/11/27 04:42:07;;;;;;;1.85;1.55;;;17.40;53.10;;;;;;4988946;28;20117;-59
2021/11/27 04:44:33;;;;;;;2.20;1.90;;;17.40;53.10;;;;;;4988555;28;20097;-59
2021/11/27 04:46:58;;;;;;;2.08;1.70;;;17.40;53.10;;;;;;4988747;28;20033;-59
2021/11/27 04:49:24;;;;;;;2.92;1.58;;;17.40;53.20;;;;;;4988403;28;20108;-60
2021/11/27 04:51:49;;;;;;;2.00;1.65;;;17.40;53.20;;;;;;4987921;28;20030;-60
2021/11/27 04:54:15;;;;;;;1.90;1.60;;;17.40;53.20;;;;;;4988473;28;20019;-60
2021/11/27 04:56:40;;;;;;;2.00;1.70;;;17.40;53.20;;;;;;4975294;28;20026;-60
2021/11/27 04:59:06;;;;;;;2.03;1.67;;;17.40;53.20;;;;;;4987954;28;20026;-60
2021/11/27 05:01:31;;;;;;;1.60;1.40;;;17.40;53.20;;;;;;4971292;28;20171;-60
2021/11/27 05:03:57;;;;;;;2.22;1.50;;;17.40;53.20;;;;;;4992677;28;20034;-61
2021/11/27 05:06:22;;;;;;;1.75;1.58;;;17.40;53.20;;;;;;4987934;28;20034;-61
2021/11/27 05:08:48;;;;;;;2.13;1.40;;;17.40;53.20;;;;;;4987699;28;20022;-61
2021/11/27 05:11:14;;;;;;;2.55;1.90;;;17.40;53.20;;;;;;4991793;28;20037;-61
2021/11/27 05:13:39;;;;;;;2.13;1.90;;;17.40;53.10;;;;;;4986325;28;20022;-61
2021/11/27 05:16:06;;;;;;;2.08;1.75;;;17.40;53.00;;;;;;4987996;28;20029;-61
2021/11/27 05:18:32;;;;;;;2.00;1.80;;;17.40;53.00;;;;;;4988612;28;20540;-61
2021/11/27 05:20:58;;;;;;;1.67;1.50;;;17.50;53.00;;;;;;4987851;28;20057;-62
2021/11/27 05:23:23;;;;;;;1.92;1.70;;;17.50;53.00;;;;;;4988863;28;20385;-63
2021/11/27 05:25:49;;;;;;;2.03;1.65;;;17.50;53.00;;;;;;4988101;28;20034;-61
2021/11/27 05:28:14;;;;;;;3.00;1.70;;;17.60;52.90;;;;;;4987929;28;20034;-61
2021/11/27 05:30:40;;;;;;;1.80;1.55;;;17.60;52.80;;;;;;4988187;28;20118;-61
2021/11/27 05:33:09;;;;;;;1.67;1.52;;;17.60;52.60;;;;;;4987164;28;20060;-61
2021/11/27 05:35:34;;;;;;;2.55;1.65;;;17.70;52.60;;;;;;4987990;28;20021;-61
2021/11/27 05:38:01;;;;;;;1.50;1.40;;;17.70;52.40;;;;;;4987676;28;20427;-61
2021/11/27 05:40:26;;;;;;;1.90;1.35;;;17.70;52.40;;;;;;4986924;28;20018;-61
2021/11/27 05:42:52;;;;;;;1.58;1.30;;;17.70;52.30;;;;;;4987257;28;20037;-60
2021/11/27 05:45:19;;;;;;;1.95;1.55;;;17.80;52.30;;;;;;4969826;28;20034;-61
2021/11/27 05:47:45;;;;;;;2.00;1.40;;;17.80;52.20;;;;;;4987318;28;20027;-62
2021/11/27 05:50:10;;;;;;;1.67;1.55;;;17.80;52.10;;;;;;4986802;28;20041;-60
2021/11/27 05:52:36;;;;;;;1.67;1.58;;;17.80;52.10;;;;;;4987784;28;20097;-61
2021/11/27 05:55:01;;;;;;;1.90;1.70;;;17.80;52.10;;;;;;4987915;28;20053;-60
2021/11/27 05:57:27;;;;;;;2.00;1.45;;;17.80;52.10;;;;;;4986736;28;20412;-59
2021/11/27 05:59:52;;;;;;;2.65;1.60;;;17.90;52.20;;;;;;4987584;28;20109;-61
2021/11/27 06:02:18;;;;;;;1.83;1.48;;;17.80;52.30;;;;;;4969596;28;20077;-61
2021/11/27 06:04:45;;;;;;;1.90;1.65;;;17.80;52.40;;;;;;4986769;28;20042;-61
2021/11/27 06:07:10;;;;;;;2.00;1.52;;;17.80;52.40;;;;;;4987214;28;20034;-62
2021/11/27 06:09:36;;;;;;;1.90;1.23;;;17.80;52.60;;;;;;4986624;28;20046;-60
2021/11/27 06:12:01;;;;;;;1.98;1.67;;;17.80;52.60;;;;;;4986217;28;20068;-61
2021/11/27 06:14:27;;;;;;;2.60;1.85;;;17.70;52.60;;;;;;4986654;28;20030;-61
2021/11/27 06:16:52;;;;;;;1.80;1.70;;;17.70;52.70;;;;;;4986176;28;20030;-61
2021/11/27 06:19:18;;;;;;;2.03;1.55;;;17.70;52.80;;;;;;4986987;28;20018;-61
2021/11/27 06:21:43;;;;;;;1.63;1.38;;;17.70;52.80;;;;;;4986928;28;20593;-61
2021/11/27 06:24:09;;;;;;;1.67;1.58;;;17.70;52.90;;;;;;4986971;28;20034;-61
2021/11/27 06:26:34;;;;;;;1.75;1.38;;;17.70;52.90;;;;;;4986858;28;20036;-61
2021/11/27 06:29:00;;;;;;;1.80;1.63;;;17.70;52.90;;;;;;4982461;28;20026;-61
2021/11/27 06:31:25;;;;;;;1.60;1.50;;;17.70;53.00;;;;;;4986533;28;20097;-61
2021/11/27 06:33:51;;;;;;;1.95;1.60;;;17.70;53.00;;;;;;4986233;28;20053;-61
2021/11/27 06:36:16;;;;;;;1.77;1.67;;;17.70;53.00;;;;;;4986628;28;20687;-61
2021/11/27 06:38:42;;;;;;;2.15;1.70;;;17.70;53.00;;;;;;4985801;28;20053;-61
2021/11/27 06:41:07;;;;;;;2.35;1.80;;;17.70;53.10;;;;;;4986257;28;20033;-61
2021/11/27 06:43:33;;;;;;;1.75;1.65;;;17.70;53.10;;;;;;4986325;28;20038;-61
2021/11/27 06:46:00;;;;;;;2.20;1.80;;;17.70;53.00;;;;;;4986345;28;20054;-61
2021/11/27 06:48:26;;;;;;;1.50;1.40;;;17.70;53.00;;;;;;4985394;28;20556;-61
2021/11/27 06:50:51;;;;;;;2.58;1.92;;;17.80;53.00;;;;;;4985451;28;20117;-61
2021/11/27 06:53:17;;;;;;;1.73;1.42;;;17.70;52.90;;;;;;4985383;28;20507;-61
2021/11/27 06:55:42;;;;;;;1.52;1.40;;;17.70;52.80;;;;;;4985652;28;20037;-61
2021/11/27 06:58:08;;;;;;;2.20;1.85;;;17.80;52.70;;;;;;4986046;28;20505;-61
2021/11/27 07:00:33;;;;;;;1.98;1.77;;;17.80;52.70;;;;;;4985861;28;20037;-60
2021/11/27 07:02:59;;;;;;;1.70;1.60;;;17.80;52.60;;;;;;4986294;28;20061;-61
2021/11/27 07:05:25;;;;;;;1.88;1.77;;;17.90;52.50;;;;;;4986427;28;20097;-61
2021/11/27 07:07:50;;;;;;;1.63;1.52;;;17.90;52.50;;;;;;4986521;28;20722;-61
2021/11/27 07:10:16;;;;;;;2.25;1.73;;;17.90;52.40;;;;;;4985510;28;20397;-61
2021/11/27 07:12:41;;;;;;;2.13;1.92;;;17.90;52.30;;;;;;4985993;28;20044;-61
2021/11/27 07:15:07;;;;;;;2.35;2.15;;;17.90;52.20;;;;;;4985803;28;20027;-61
2021/11/27 07:17:33;;;;;;;2.22;1.55;;;17.90;52.20;;;;;;4986538;28;20736;-61
2021/11/27 07:19:59;;;;;;;3.08;1.75;;;17.90;52.10;;;;;;4968489;28;20015;-61
2021/11/27 07:22:25;;;;;;;2.00;1.80;;;17.90;52.10;;;;;;4986173;28;20404;-61
2021/11/27 07:24:50;;;;;;;1.95;1.75;;;17.90;52.00;;;;;;4985561;28;20026;-61
2021/11/27 07:27:16;;;;;;;2.63;1.90;;;17.90;52.10;;;;;;4985270;28;20092;-60
2021/11/27 07:29:42;;;;;;;2.55;1.83;;;17.90;52.10;;;;;;4986140;28;20121;-61
2021/11/27 07:32:07;;;;;;;2.17;1.90;;;17.90;52.00;;;;;;4986105;28;20378;-61
2021/11/27 07:34:33;;;;;;;1.60;1.50;;;17.90;52.10;;;;;;4986279;28;20034;-62
2021/11/27 07:36:58;;;;;;;2.28;1.80;;;17.90;52.10;;;;;;4985788;28;20026;-61
2021/11/27 07:39:24;;;;;;;1.88;1.70;;;17.90;52.10;;;;;;4968093;28;20026;-61
2021/11/27 07:41:49;;;;;;;1.52;1.42;;;17.90;52.10;;;;;;4985674;28;20030;-61
2021/11/27 07:44:15;;;;;;;4.45;2.22;;;17.90;52.10;;;;;;4985758;28;20026;-60
2021/11/27 07:46:41;;;;;;;6.25;1.73;;;17.90;52.10;;;;;;4968796;28;20054;-61
2021/11/27 07:49:06;;;;;;;4.25;1.92;;;17.90;52.20;;;;;;4985363;28;20512;-61
2021/11/27 07:51:32;;;;;;;2.20;1.80;;;17.90;52.30;;;;;;4985654;28;20556;-61
2021/11/27 07:53:58;;;;;;;4.80;2.10;;;17.90;52.40;;;;;;4985510;28;20026;-61
2021/11/27 07:56:24;;;;;;;6.28;2.28;;;17.90;52.70;;;;;;4984330;28;20023;-62
2021/11/27 07:58:49;;;;;;;4.97;1.77;;;17.90;52.90;;;;;;4985317;28;20021;-62
2021/11/27 08:01:15;;;;;;;5.28;2.03;;;17.90;53.00;;;;;;4988077;28;20022;-61
2021/11/27 08:03:41;;;;;;;4.30;2.03;;;17.80;53.00;;;;;;4989642;28;20030;-62
2021/11/27 08:06:07;;;;;;;2.33;1.45;;;17.80;53.00;;;;;;4972151;28;20041;-61
2021/11/27 08:08:32;;;;;;;5.97;1.98;;;17.80;53.00;;;;;;4989087;28;20030;-61
2021/11/27 08:10:58;;;;;;;2.97;1.85;;;17.80;53.00;;;;;;4989374;28;20030;-63
2021/11/27 08:13:24;;;;;;;3.88;1.63;;;17.80;52.90;;;;;;4971592;28;20397;-62
2021/11/27 08:15:49;;;;;;;3.17;1.90;;;17.80;52.80;;;;;;4990078;28;20029;-62
2021/11/27 08:18:15;;;;;;;3.65;1.80;;;17.80;52.80;;;;;;5000677;23;20135;-53
2021/11/27 08:20:40;;;;;;;3.90;1.80;;;17.80;52.80;;;;;;4960773;28;20228;-60
2021/11/27 08:23:06;;;;;;;6.35;2.10;;;17.80;52.80;;;;;;4961263;28;20610;-58
2021/11/27 08:25:32;;;;;;;7.03;2.17;;;17.80;52.80;;;;;;4956659;28;20116;-57
2021/11/27 08:27:58;;;;;;;5.10;2.42;;;17.70;52.70;;;;;;4960325;28;20035;-57
2021/11/27 08:30:26;;;;;;;7.72;2.17;;;17.70;52.80;;;;;;4969336;28;20033;-61
2021/11/27 08:32:52;;;;;;;3.90;2.15;;;17.70;53.00;;;;;;4966632;28;20057;-57
2021/11/27 08:35:17;;;;;;;5.78;2.20;;;17.70;53.10;;;;;;4956404;28;20043;-60
2021/11/27 08:37:43;;;;;;;5.95;2.30;;;17.60;53.00;;;;;;4957956;28;20750;-54
2021/11/27 08:40:09;;;;;;;4.88;2.17;;;17.60;53.10;;;;;;4953882;28;20030;-56
2021/11/27 08:42:35;;;;;;;4.18;2.42;;;17.50;53.10;;;;;;4967670;28;20088;-55
2021/11/27 08:45:01;;;;;;;2.75;1.92;;;17.50;53.10;;;;;;4970095;28;20034;-57
2021/11/27 08:47:26;;;;;;;7.07;2.20;;;17.50;53.10;;;;;;4968879;28;20121;-60
2021/11/27 08:49:55;;;;;;;2.67;1.90;;;17.50;53.20;;;;;;4973886;28;20428;-52
2021/11/27 08:52:21;;;;;;;3.55;1.85;;;17.40;53.30;;;;;;4971098;28;20064;-60
2021/11/27 08:54:46;;;;;;;5.00;1.65;;;17.40;53.40;;;;;;4967163;28;20050;-56
2021/11/27 08:57:12;;;;;;;4.95;1.88;;;17.40;53.60;;;;;;4972518;28;20023;-61
2021/11/27 08:59:38;;;;;;;3.40;1.88;;;17.40;53.60;;;;;;4982592;28;20049;-56
2021/11/27 09:02:04;;;;;;;3.53;2.30;;;17.40;53.70;;;;;;4983184;28;20041;-55
2021/11/27 09:04:29;;;;;;;4.57;1.90;;;17.40;53.80;;;;;;4965440;28;20084;-55
2021/11/27 09:06:55;;;;;;;4.18;2.03;;;17.40;53.80;;;;;;4965378;28;20113;-58
2021/11/27 09:09:21;;;;;;;4.15;1.88;;;17.40;53.80;;;;;;4982430;28;20117;-56
2021/11/27 09:11:47;;;;;;;4.68;1.70;;;17.40;53.80;;;;;;4981751;28;20764;-54
2021/11/27 09:14:12;;;;;;;3.88;2.45;;;17.50;53.70;;;;;;4982122;28;20022;-59
2021/11/27 09:16:38;;;;;;;3.63;2.10;;;17.50;53.70;;;;;;4982004;28;20501;-59
2021/11/27 09:19:04;;;;;;;2.58;2.28;;;17.50;53.60;;;;;;4962920;28;20057;-61
2021/11/27 09:21:30;;;;;;;2.78;2.05;;;17.50;53.60;;;;;;4964684;28;20027;-57
2021/11/27 09:23:56;;;;;;;2.53;2.00;;;17.60;53.60;;;;;;4965025;28;20038;-56
2021/11/27 09:26:22;;;;;;;3.55;2.05;;;17.60;53.50;;;;;;4982331;28;20018;-60
2021/11/27 09:28:47;;;;;;;3.40;2.45;;;17.60;53.50;;;;;;4964139;28;20019;-56
2021/11/27 09:31:13;;;;;;;3.30;1.95;;;17.70;53.50;;;;;;4982453;28;20113;-54
2021/11/27 09:33:38;;;;;;;6.72;4.45;;;17.70;53.50;;;;;;4978126;28;20038;-58
2021/11/27 09:36:06;;;;;;;9.27;5.30;;;17.70;53.60;;;;;;4957591;28;20026;-55
2021/11/27 09:38:32;;;;;;;9.63;4.68;;;17.70;53.50;;;;;;4966594;28;20031;-58
2021/11/27 09:41:08;;;;;;;12.18;4.93;;;17.70;54.00;;;;;;4966106;28;20035;-52
2021/11/27 09:43:34;;;;;;;21.77;9.18;;;17.80;53.90;;;;;;4981952;28;21021;-57
2021/11/27 09:45:59;;;;;;;25.83;13.50;;;17.80;54.10;;;;;;4940755;28;20058;-60
2021/11/27 09:48:25;;;;;;;30.58;15.70;;;17.80;54.30;;;;;;4965309;28;20065;-60
2021/11/27 09:50:52;;;;;;;26.77;15.50;;;17.80;54.50;;;;;;4981893;28;20023;-59
2021/11/27 09:53:20;;;;;;;38.70;17.98;;;17.90;54.70;;;;;;4981884;28;20114;-61
2021/11/27 09:55:47;;;;;;;32.92;16.45;;;17.90;54.90;;;;;;4964628;28;20093;-56
2021/11/27 09:58:12;;;;;;;27.15;16.52;;;17.80;55.00;;;;;;4982147;28;20041;-56
2021/11/27 10:00:38;;;;;;;32.00;15.93;;;17.80;55.20;;;;;;4980290;28;20403;-56
2021/11/27 10:03:03;;;;;;;34.58;16.05;;;17.90;55.40;;;;;;4983012;28;20035;-55
2021/11/27 10:05:29;;;;;;;30.05;13.43;;;17.90;55.30;;;;;;4980955;28;20414;-57
2021/11/27 10:07:54;;;;;;;25.90;11.40;;;17.80;55.20;;;;;;4981416;28;20068;-54
2021/11/27 10:10:20;;;;;;;30.67;12.90;;;17.80;55.40;;;;;;4980571;28;20025;-53
2021/11/27 10:12:45;;;;;;;30.65;12.02;;;17.80;55.40;;;;;;4980803;28;20034;-58
2021/11/27 10:15:11;;;;;;;25.95;11.77;;;17.80;55.40;;;;;;4981984;28;20077;-55
2021/11/27 10:17:37;;;;;;;25.88;11.57;;;17.90;55.40;;;;;;4982446;28;20038;-54
2021/11/27 10:20:06;;;;;;;20.73;10.65;;;17.80;55.40;;;;;;4981944;28;20046;-60
2021/11/27 10:22:37;;;;;;;16.85;9.65;;;17.80;55.20;;;;;;4981759;28;20568;-52
2021/11/27 10:25:21;;;;;;;17.88;9.68;;;17.80;55.10;;;;;;4980993;28;20030;-60
2021/11/27 10:27:46;;;;;;;18.40;8.60;;;17.80;55.10;;;;;;4966375;28;20049;-56
2021/11/27 10:30:12;;;;;;;22.45;9.73;;;17.80;55.00;;;;;;4948926;28;20022;-56
2021/11/27 10:32:39;;;;;;;16.52;8.52;;;17.80;54.90;;;;;;4981634;28;20518;-51
2021/11/27 10:35:12;;;;;;;20.83;9.50;;;17.80;54.90;;;;;;4982303;28;20035;-54
2021/11/27 10:37:46;;;;;;;15.85;8.90;;;17.80;54.80;;;;;;4965154;28;20030;-53
2021/11/27 10:40:13;;;;;;;21.10;8.82;;;17.80;54.70;;;;;;4982931;28;20038;-50
2021/11/27 10:42:58;;;;;;;16.50;7.57;;;17.80;54.70;;;;;;4982654;28;20117;-57
2021/11/27 10:45:28;;;;;;;15.15;6.68;;;17.70;54.50;;;;;;4969468;28;20038;-50
2021/11/27 10:48:30;;;;;;;11.98;7.53;;;17.80;54.40;;;;;;4964809;28;20711;-54
2021/11/27 10:51:00;;;;;;;17.83;7.65;;;17.80;54.30;;;;;;4911412;29;20043;-59
2021/11/27 10:53:33;;;;;;;23.85;8.82;;;17.80;54.60;;;;;;4971543;28;20034;-55
2021/11/27 10:56:08;;;;;;;25.70;8.68;;;17.80;55.00;;;;;;4982757;28;20058;-52
2021/11/27 10:58:57;;;;;;;25.17;9.27;;;17.70;55.30;;;;;;4952066;28;20515;-55
2021/11/27 11:01:23;;;;;;;18.23;8.35;;;17.70;55.60;;;;;;4981914;28;20034;-54
2021/11/27 11:03:48;;;;;;;19.38;7.38;;;17.80;55.50;;;;;;4980710;28;21771;-55
2021/11/27 11:06:25;;;;;;;21.60;8.75;;;17.70;55.60;;;;;;4965423;28;20487;-60
2021/11/27 11:08:51;;;;;;;25.10;7.40;;;17.70;55.90;;;;;;4980605;28;20728;-50
2021/11/27 11:11:20;;;;;;;17.27;6.97;;;17.60;56.20;;;;;;4981644;28;20053;-50
2021/11/27 11:13:52;;;;;;;17.30;6.15;;;17.60;56.30;;;;;;4957865;28;20488;-52
2021/11/27 11:16:17;;;;;;;18.63;6.75;;;17.60;56.50;;;;;;4967586;28;20037;-51
2021/11/27 11:18:43;;;;;;;12.52;6.20;;;17.50;56.40;;;;;;4982960;28;20042;-54
2021/11/27 11:21:08;;;;;;;18.05;6.75;;;17.50;56.60;;;;;;4984073;28;20033;-57
2021/11/27 11:23:40;;;;;;;13.52;5.70;;;17.50;56.80;;;;;;4957830;28;20026;-57
2021/11/27 11:26:12;;;;;;;13.82;6.00;;;17.50;57.20;;;;;;4966758;28;20042;-51
2021/11/27 11:28:51;;;;;;;15.75;5.68;;;17.40;57.40;;;;;;4932210;28;20031;-50
2021/11/27 11:31:19;;;;;;;12.73;5.82;;;17.40;57.70;;;;;;4905321;28;20526;-54
2021/11/27 11:33:47;;;;;;;11.82;5.57;;;17.40;57.70;;;;;;4976617;28;20130;-59
2021/11/27 11:36:18;;;;;;;10.38;4.90;;;17.40;57.80;;;;;;4989311;28;20030;-58
2021/11/27 11:38:45;;;;;;;9.38;4.70;;;17.40;57.80;;;;;;4953389;28;20077;-58
2021/11/27 11:41:12;;;;;;;18.75;4.90;;;17.30;57.80;;;;;;4983094;28;20030;-58
2021/11/27 11:43:37;;;;;;;14.43;5.10;;;17.30;57.70;;;;;;4970267;28;20674;-53
2021/11/27 11:46:03;;;;;;;12.75;5.28;;;17.30;58.00;;;;;;4970376;28;20076;-55
2021/11/27 11:48:29;;;;;;;11.00;4.65;;;17.30;58.20;;;;;;4970025;28;20022;-58
2021/11/27 11:50:59;;;;;;;12.68;4.60;;;17.30;58.20;;;;;;4904072;28;20043;-57
2021/11/27 11:54:00;;;;;;;7.95;4.15;;;17.20;58.20;;;;;;4964089;28;20030;-60
2021/11/27 11:56:40;;;;;;;11.73;4.18;;;17.20;58.30;;;;;;4897421;29;21340;-59
2021/11/27 11:59:27;;;;;;;10.25;4.40;;;17.30;58.20;;;;;;4948773;28;20640;-57
2021/11/27 12:02:28;;;;;;;10.18;4.18;;;17.40;57.80;;;;;;4984358;28;20630;-56
2021/11/27 12:05:08;;;;;;;8.45;4.20;;;17.30;57.70;;;;;;4866467;29;20190;-58
2021/11/27 12:07:47;;;;;;;8.75;3.15;;;17.30;57.70;;;;;;4958023;28;20045;-55
2021/11/27 12:10:23;;;;;;;8.23;3.25;;;17.30;57.80;;;;;;4972865;28;20026;-53
2021/11/27 12:13:10;;;;;;;4.78;2.90;;;17.30;57.70;;;;;;4969526;28;20050;-51
2021/11/27 12:15:39;;;;;;;7.70;3.92;;;17.30;57.60;;;;;;4969787;28;20049;-56
2021/11/27 12:18:09;;;;;;;7.25;3.40;;;17.30;57.40;;;;;;4973228;28;20503;-53
2021/11/27 12:20:47;;;;;;;7.15;3.40;;;17.30;57.50;;;;;;4097194;28;10000963;-54
2021/11/27 12:23:38;;;;;;;6.82;3.00;;;17.20;57.50;;;;;;4982194;28;20109;-54
2021/11/27 12:26:14;;;;;;;9.63;3.53;;;17.20;57.60;;;;;;4107930;28;10000875;-59
2021/11/27 12:28:49;;;;;;;9.50;3.25;;;17.20;57.70;;;;;;4951082;28;20041;-59
2021/11/27 12:31:22;;;;;;;10.88;3.45;;;17.20;57.80;;;;;;4984196;28;20030;-57
2021/11/27 12:33:54;;;;;;;9.57;3.25;;;17.20;58.00;;;;;;4983684;28;20038;-58
2021/11/27 12:36:26;;;;;;;6.38;3.15;;;17.20;58.10;;;;;;4980624;28;20026;-56
2021/11/27 12:39:09;;;;;;;6.85;2.72;;;17.20;58.10;;;;;;4981312;28;20744;-57
2021/11/27 12:41:43;;;;;;;6.90;2.88;;;17.30;58.00;;;;;;4982216;28;20041;-59
2021/11/27 12:44:09;;;;;;;5.78;2.67;;;17.30;57.90;;;;;;4983314;28;20031;-59
2021/11/27 12:46:35;;;;;;;5.93;2.55;;;17.30;57.90;;;;;;4981639;28;20034;-60